Time;durP1;ratioP1;P1;durP2;ratioP2;P2;SDS_P1;SDS_P2;PMS_P1;PMS_P2;Temp;Humidity;BMP_temperature;BMP_pressure;BME280_temperature;BME280_humidity;BME280_pressure;Samples;Min_cycle;Max_cycle;Signal;HPM_P1;HPM_P2
2023/05/04 00:00:06;;;;;;;13.75;9.93;;;;;;;8.63;100.00;102081.81;5265905;28;20029;-66
2023/05/04 00:02:38;;;;;;;19.15;10.32;;;;;;;8.58;100.00;102079.34;5267210;28;20029;-65
2023/05/04 00:05:11;;;;;;;15.60;9.68;;;;;;;8.52;100.00;102082.31;5272141;28;20031;-65
2023/05/04 00:07:42;;;;;;;15.80;10.23;;;;;;;8.54;100.00;102074.25;5276900;28;20062;-65
2023/05/04 00:10:13;;;;;;;14.77;9.63;;;;;;;8.56;100.00;102078.56;5281676;28;20086;-66
2023/05/04 00:12:45;;;;;;;15.48;9.88;;;;;;;8.50;100.00;102070.03;5272377;28;20024;-65
2023/05/04 00:15:16;;;;;;;16.50;10.18;;;;;;;8.50;100.00;102076.19;5268231;28;20547;-66
2023/05/04 00:17:47;;;;;;;14.23;9.50;;;;;;;8.51;100.00;102066.41;5271654;28;20033;-65
2023/05/04 00:20:19;;;;;;;14.88;9.73;;;;;;;8.51;100.00;102061.94;5269389;28;20493;-65
2023/05/04 00:22:50;;;;;;;13.95;9.88;;;;;;;8.49;100.00;102053.19;5284969;28;20627;-65
2023/05/04 00:25:22;;;;;;;15.48;9.18;;;;;;;8.47;100.00;102056.84;5271046;28;20363;-65
2023/05/04 00:27:53;;;;;;;13.73;9.13;;;;;;;8.39;100.00;102044.75;5262511;28;20013;-66
2023/05/04 00:30:25;;;;;;;14.48;9.73;;;;;;;8.40;100.00;102040.31;5271340;28;20498;-65
2023/05/04 00:32:56;;;;;;;18.45;9.45;;;;;;;8.40;100.00;102043.84;5266700;28;20086;-65
2023/05/04 00:35:30;;;;;;;12.70;8.82;;;;;;;8.38;100.00;102037.72;5279757;28;20024;-65
2023/05/04 00:38:03;;;;;;;14.20;8.40;;;;;;;8.35;100.00;102034.34;5271967;28;20037;-67
2023/05/04 00:40:35;;;;;;;12.00;7.85;;;;;;;8.32;100.00;102037.16;5273591;28;20425;-65
2023/05/04 00:43:06;;;;;;;13.52;8.98;;;;;;;8.39;100.00;102028.78;5260021;28;20036;-65
2023/05/04 00:45:39;;;;;;;17.92;9.25;;;;;;;8.35;100.00;102039.66;5265757;28;20029;-66
2023/05/04 00:48:10;;;;;;;13.15;8.80;;;;;;;8.27;100.00;102037.38;5270802;28;20032;-65
2023/05/04 00:50:42;;;;;;;17.05;8.52;;;;;;;8.27;100.00;102032.06;5260249;28;20471;-65
2023/05/04 00:53:14;;;;;;;11.25;8.45;;;;;;;8.28;100.00;102033.75;5269218;28;20123;-65
2023/05/04 00:55:45;;;;;;;13.63;9.23;;;;;;;8.30;100.00;102025.72;5265719;28;20028;-66
2023/05/04 00:58:17;;;;;;;12.27;8.15;;;;;;;8.23;100.00;102020.69;5261226;28;20036;-66
2023/05/04 01:00:49;;;;;;;13.13;8.30;;;;;;;8.23;100.00;102030.47;5262911;28;20028;-65
2023/05/04 01:03:20;;;;;;;13.98;7.97;;;;;;;8.18;100.00;102016.53;5263357;28;20041;-65
2023/05/04 01:06:11;;;;;;;14.25;8.07;;;;;;;8.19;100.00;102024.44;5263462;28;20028;-66
2023/05/04 01:08:56;;;;;;;11.07;7.75;;;;;;;8.19;100.00;102028.91;5260815;28;20043;-66
2023/05/04 01:11:55;;;;;;;13.63;7.90;;;;;;;8.14;100.00;102017.63;5262600;28;20037;-66
2023/05/04 01:14:29;;;;;;;11.68;8.02;;;;;;;8.17;100.00;102020.13;5255746;28;21124;-66
2023/05/04 01:17:04;;;;;;;14.85;8.40;;;;;;;8.14;100.00;102012.31;5259138;28;20113;-65
2023/05/04 01:19:35;;;;;;;11.00;7.85;;;;;;;8.11;100.00;102007.13;5263212;28;20024;-65
2023/05/04 01:22:07;;;;;;;11.55;7.35;;;;;;;8.12;100.00;102007.06;5261214;28;20525;-66
2023/05/04 01:24:38;;;;;;;11.98;7.50;;;;;;;8.11;100.00;102005.34;5263200;28;20023;-66
2023/05/04 01:27:30;;;;;;;9.70;7.88;;;;;;;8.09;100.00;101998.34;5264810;28;20032;-65
2023/05/04 01:30:11;;;;;;;12.02;7.97;;;;;;;8.12;100.00;102000.88;5264244;28;20049;-65
2023/05/04 01:32:44;;;;;;;12.57;8.15;;;;;;;8.00;100.00;102003.19;5267231;28;20024;-65
2023/05/04 01:35:16;;;;;;;12.23;8.20;;;;;;;8.02;100.00;102000.47;5268915;28;20065;-65
2023/05/04 01:37:47;;;;;;;11.85;7.88;;;;;;;8.00;100.00;102000.53;5269509;28;20523;-65
2023/05/04 01:40:19;;;;;;;14.45;8.40;;;;;;;7.92;100.00;101996.50;5265794;28;20028;-66
2023/05/04 01:42:50;;;;;;;12.07;7.70;;;;;;;7.89;100.00;101999.31;5268662;28;20024;-65
2023/05/04 01:45:21;;;;;;;12.00;8.20;;;;;;;7.85;100.00;101996.78;5271517;28;20074;-66
2023/05/04 01:47:53;;;;;;;12.63;7.97;;;;;;;7.83;100.00;101984.50;5272155;28;20399;-65
2023/05/04 01:50:24;;;;;;;12.02;7.57;;;;;;;7.84;100.00;101996.84;5269663;28;20448;-65
2023/05/04 01:52:56;;;;;;;13.40;8.65;;;;;;;7.80;100.00;102006.75;5264280;28;20522;-65
2023/05/04 01:55:27;;;;;;;12.07;8.43;;;;;;;7.86;100.00;101994.97;5264970;28;20425;-66
2023/05/04 01:57:58;;;;;;;11.57;8.27;;;;;;;7.79;100.00;102004.19;5262839;28;20103;-65
2023/05/04 02:00:30;;;;;;;11.43;8.30;;;;;;;7.73;100.00;102002.69;5260437;28;20387;-65
2023/05/04 02:03:01;;;;;;;13.85;8.45;;;;;;;7.74;100.00;101998.22;5270438;28;20045;-66
2023/05/04 02:05:33;;;;;;;12.48;8.52;;;;;;;7.68;100.00;102002.03;5267464;28;20090;-66
2023/05/04 02:08:04;;;;;;;12.68;8.60;;;;;;;7.69;100.00;102000.22;5270110;28;20029;-66
2023/05/04 02:10:36;;;;;;;12.68;8.93;;;;;;;7.74;100.00;102000.88;5262469;28;20025;-66
2023/05/04 02:13:07;;;;;;;11.75;8.65;;;;;;;7.65;100.00;102000.38;5274040;28;20030;-66
2023/05/04 02:15:39;;;;;;;12.82;9.13;;;;;;;7.64;100.00;102006.59;5269321;28;20032;-66
2023/05/04 02:18:10;;;;;;;13.40;9.18;;;;;;;7.68;100.00;101999.38;5277037;28;20124;-66
2023/05/04 02:20:42;;;;;;;14.93;9.25;;;;;;;7.62;100.00;102000.50;5272570;28;20017;-67
2023/05/04 02:23:13;;;;;;;13.77;9.75;;;;;;;7.61;100.00;101992.59;5267528;28;20020;-66
2023/05/04 02:25:45;;;;;;;13.63;9.02;;;;;;;7.55;100.00;101991.09;5265669;28;20056;-66
2023/05/04 02:28:16;;;;;;;17.77;9.30;;;;;;;7.51;100.00;101988.66;5278102;28;20036;-66
2023/05/04 02:30:47;;;;;;;12.70;9.40;;;;;;;7.50;100.00;101985.13;5269398;28;20025;-66
2023/05/04 02:33:19;;;;;;;15.43;9.68;;;;;;;7.58;100.00;101982.13;5275772;28;20073;-67
2023/05/04 02:35:50;;;;;;;13.95;9.00;;;;;;;7.40;100.00;101970.53;5264515;28;20025;-65
2023/05/04 02:38:21;;;;;;;14.32;9.43;;;;;;;7.43;100.00;101981.88;5269205;28;20048;-66
2023/05/04 02:40:53;;;;;;;16.70;9.35;;;;;;;7.39;100.00;101977.66;5267461;28;20021;-65
2023/05/04 02:43:25;;;;;;;13.38;8.88;;;;;;;7.36;100.00;101969.81;5267919;28;20032;-66
2023/05/04 02:45:56;;;;;;;14.00;9.23;;;;;;;7.28;100.00;101976.41;5296019;28;20501;-66
2023/05/04 02:48:27;;;;;;;13.50;9.50;;;;;;;7.32;100.00;101976.19;5267521;28;20047;-66
2023/05/04 02:50:59;;;;;;;14.27;9.52;;;;;;;7.32;100.00;101978.00;5272170;28;20032;-66
2023/05/04 02:53:30;;;;;;;14.23;9.80;;;;;;;7.31;100.00;101969.16;5274444;28;20079;-66
2023/05/04 02:56:02;;;;;;;17.13;9.98;;;;;;;7.23;100.00;101977.47;5271921;28;20032;-67
2023/05/04 02:58:33;;;;;;;13.25;9.45;;;;;;;7.22;100.00;101972.22;5267709;28;20070;-66
2023/05/04 03:01:05;;;;;;;14.80;9.40;;;;;;;7.13;100.00;101981.44;5265474;28;20074;-65
2023/05/04 03:03:36;;;;;;;13.45;9.00;;;;;;;7.28;100.00;101977.25;5272343;28;20175;-66
2023/05/04 03:06:08;;;;;;;14.90;9.32;;;;;;;7.19;100.00;101978.53;5266425;28;20024;-66
2023/05/04 03:08:39;;;;;;;14.18;9.48;;;;;;;7.14;100.00;101977.03;5279510;28;20021;-65
2023/05/04 03:11:10;;;;;;;15.45;9.45;;;;;;;7.07;100.00;101968.44;5269099;28;20060;-66
2023/05/04 03:13:42;;;;;;;13.35;10.07;;;;;;;7.05;100.00;101975.63;5267989;28;20070;-65
2023/05/04 03:16:13;;;;;;;15.95;9.63;;;;;;;7.07;100.00;101968.44;5272790;28;20032;-66
2023/05/04 03:18:45;;;;;;;17.88;10.23;;;;;;;7.03;100.00;101975.69;5278504;28;20376;-66
2023/05/04 03:21:16;;;;;;;14.60;9.63;;;;;;;7.04;100.00;101971.25;5272901;28;20024;-65
2023/05/04 03:23:47;;;;;;;11.48;9.02;;;;;;;6.90;100.00;101961.22;5273057;28;20017;-65
2023/05/04 03:26:20;;;;;;;17.48;9.68;;;;;;;6.92;100.00;101969.13;5272432;28;21207;-65
2023/05/04 03:28:51;;;;;;;16.08;9.65;;;;;;;6.98;100.00;101972.38;5279569;28;20024;-66
2023/05/04 03:31:23;;;;;;;17.38;9.77;;;;;;;6.95;100.00;101961.03;5273943;28;20373;-65
2023/05/04 03:33:54;;;;;;;13.63;9.98;;;;;;;6.86;100.00;101951.66;5270616;28;20016;-65
2023/05/04 03:36:26;;;;;;;13.95;9.63;;;;;;;6.83;100.00;101950.03;5280887;28;20043;-65
2023/05/04 03:38:57;;;;;;;13.98;9.50;;;;;;;6.83;100.00;101955.31;5269982;28;20512;-65
2023/05/04 03:41:28;;;;;;;13.05;9.55;;;;;;;6.77;100.00;101955.59;5271310;28;20024;-65
2023/05/04 03:44:00;;;;;;;17.20;10.35;;;;;;;6.77;100.00;101946.75;5274051;28;20112;-66
2023/05/04 03:46:31;;;;;;;15.32;9.48;;;;;;;6.74;100.00;101950.41;5263584;28;20364;-65
2023/05/04 03:49:03;;;;;;;13.05;9.38;;;;;;;6.73;100.00;101946.06;5268146;28;20032;-65
2023/05/04 03:51:34;;;;;;;17.48;9.45;;;;;;;6.71;100.00;101941.72;5265572;28;20024;-66
2023/05/04 03:54:06;;;;;;;12.13;9.30;;;;;;;6.72;100.00;101944.31;5261263;28;20029;-66
2023/05/04 03:56:37;;;;;;;13.13;8.80;;;;;;;6.68;100.00;101942.72;5266134;28;20029;-65
2023/05/04 03:59:09;;;;;;;15.02;8.57;;;;;;;6.61;100.00;101942.09;5262375;28;20032;-66
2023/05/04 04:01:40;;;;;;;18.35;8.93;;;;;;;6.62;100.00;101937.69;5263758;28;20374;-66
2023/05/04 04:04:11;;;;;;;15.07;9.27;;;;;;;6.60;100.00;101944.84;5265614;28;20147;-66
2023/05/04 04:06:43;;;;;;;14.43;9.07;;;;;;;6.63;100.00;101939.41;5261258;28;20020;-66
2023/05/04 04:09:15;;;;;;;14.95;9.73;;;;;;;6.63;100.00;101944.69;5262278;28;20504;-66
2023/05/04 04:11:46;;;;;;;13.70;9.52;;;;;;;6.60;100.00;101951.00;5264150;28;20036;-65
2023/05/04 04:14:17;;;;;;;14.27;9.10;;;;;;;6.62;100.00;101948.28;5261597;28;20478;-66
2023/05/04 04:16:49;;;;;;;16.13;8.90;;;;;;;6.60;100.00;101944.84;5258333;28;20042;-67
2023/05/04 04:19:20;;;;;;;22.38;10.65;;;;;;;6.60;100.00;101939.53;5261775;28;20032;-65
2023/05/04 04:21:52;;;;;;;13.13;9.32;;;;;;;6.60;100.00;101937.75;5257145;28;20032;-65
2023/05/04 04:24:23;;;;;;;13.77;8.93;;;;;;;6.56;100.00;101941.47;5264322;28;20036;-66
2023/05/04 04:26:55;;;;;;;14.40;9.07;;;;;;;6.57;100.00;101934.34;5274274;28;20024;-66
2023/05/04 04:29:26;;;;;;;13.65;9.23;;;;;;;6.60;100.00;101931.59;5264101;28;20032;-66
2023/05/04 04:31:57;;;;;;;13.55;9.00;;;;;;;6.58;100.00;101929.00;5265196;28;20021;-66
2023/05/04 04:34:29;;;;;;;13.00;8.90;;;;;;;6.55;100.00;101917.66;5264968;28;20046;-65
2023/05/04 04:37:00;;;;;;;13.68;9.13;;;;;;;6.60;100.00;101920.97;5262990;28;20079;-65
2023/05/04 04:39:32;;;;;;;14.30;9.38;;;;;;;6.63;100.00;101916.38;5269107;28;20059;-66
2023/05/04 04:42:03;;;;;;;17.88;9.95;;;;;;;6.68;100.00;101916.19;5266110;28;20025;-66
2023/05/04 04:44:35;;;;;;;13.25;9.77;;;;;;;6.68;100.00;101925.00;5264713;28;20047;-66
2023/05/04 04:47:06;;;;;;;15.40;9.10;;;;;;;6.80;100.00;101928.91;5263258;28;20035;-66
2023/05/04 04:49:38;;;;;;;15.30;9.30;;;;;;;6.76;100.00;101924.69;5255076;28;20414;-66
2023/05/04 04:52:09;;;;;;;13.95;9.40;;;;;;;6.78;100.00;101919.31;5265271;28;20032;-66
2023/05/04 04:54:40;;;;;;;11.30;8.38;;;;;;;6.78;100.00;101921.97;5298320;28;20491;-65
2023/05/04 04:57:12;;;;;;;13.10;8.85;;;;;;;6.84;100.00;101929.66;5266421;28;20031;-65
2023/05/04 04:59:43;;;;;;;14.15;9.43;;;;;;;6.85;100.00;101928.75;5262311;28;20023;-66
2023/05/04 05:02:14;;;;;;;16.85;9.27;;;;;;;6.96;100.00;101923.84;5265976;28;20047;-66
2023/05/04 05:04:46;;;;;;;16.05;8.77;;;;;;;6.98;100.00;101918.44;5263249;28;20048;-65
2023/05/04 05:07:18;;;;;;;12.40;8.30;;;;;;;6.98;100.00;101921.09;5267511;28;20494;-65
2023/05/04 05:09:49;;;;;;;14.68;9.02;;;;;;;6.97;100.00;101937.94;5260570;28;20420;-65
2023/05/04 05:12:20;;;;;;;14.05;8.90;;;;;;;7.04;100.00;101932.31;5265032;28;20371;-65
2023/05/04 05:14:52;;;;;;;12.20;8.57;;;;;;;7.09;100.00;101929.44;5264262;28;20105;-65
2023/05/04 05:17:25;;;;;;;13.02;8.80;;;;;;;7.22;100.00;101933.25;5267898;28;20149;-65
2023/05/04 05:19:56;;;;;;;12.30;8.63;;;;;;;7.16;100.00;101928.25;5265127;28;20028;-66
2023/05/04 05:22:28;;;;;;;14.75;8.27;;;;;;;7.29;100.00;101925.03;5260722;28;20136;-66
2023/05/04 05:24:59;;;;;;;11.15;8.65;;;;;;;7.24;100.00;101934.06;5261635;28;20025;-66
2023/05/04 05:27:33;;;;;;;16.48;8.95;;;;;;;7.33;100.00;101937.25;5260628;28;20406;-66
2023/05/04 05:30:04;;;;;;;13.85;8.40;;;;;;;7.38;100.00;101932.56;5264223;28;20029;-65
2023/05/04 05:32:36;;;;;;;13.45;8.95;;;;;;;7.49;100.00;101935.59;5264255;28;20051;-66
2023/05/04 05:35:08;;;;;;;18.52;8.85;;;;;;;7.47;100.00;101938.31;5263584;28;20039;-66
2023/05/04 05:37:39;;;;;;;10.32;8.07;;;;;;;7.54;100.00;101936.25;5264560;28;20024;-66
2023/05/04 05:40:12;;;;;;;13.02;8.90;;;;;;;7.68;100.00;101940.06;5267023;28;20456;-65
2023/05/04 05:42:44;;;;;;;13.73;8.48;;;;;;;7.75;100.00;101936.19;5304230;28;20047;-65
2023/05/04 05:45:15;;;;;;;12.40;8.48;;;;;;;7.70;100.00;101932.88;5258243;28;20986;-66
2023/05/04 05:47:47;;;;;;;13.52;8.50;;;;;;;7.80;100.00;101934.16;5269750;28;20393;-66
2023/05/04 05:50:19;;;;;;;15.13;8.65;;;;;;;7.98;100.00;101930.66;5302231;27;20486;-66
2023/05/04 05:52:50;;;;;;;14.80;8.23;;;;;;;8.04;100.00;101924.16;5272191;28;20024;-66
2023/05/04 05:55:21;;;;;;;14.10;7.97;;;;;;;8.08;100.00;101919.56;5272026;28;20352;-66
2023/05/04 05:57:53;;;;;;;18.63;8.88;;;;;;;8.21;100.00;101926.00;5276190;28;20052;-65
2023/05/04 06:00:24;;;;;;;15.07;8.27;;;;;;;8.20;100.00;101919.81;5266651;28;20455;-65
2023/05/04 06:02:56;;;;;;;11.57;8.73;;;;;;;8.26;100.00;101916.00;5273396;28;20391;-66
2023/05/04 06:05:27;;;;;;;12.60;8.23;;;;;;;8.30;100.00;101914.03;5268411;28;20429;-66
2023/05/04 06:07:59;;;;;;;12.65;8.00;;;;;;;8.38;100.00;101917.16;5270199;28;20027;-66
2023/05/04 06:10:30;;;;;;;13.88;8.43;;;;;;;8.47;100.00;101907.91;5265711;28;20060;-66
2023/05/04 06:13:02;;;;;;;17.70;8.30;;;;;;;8.55;100.00;101906.59;5264947;28;20095;-66
2023/05/04 06:15:34;;;;;;;11.43;7.80;;;;;;;8.60;100.00;101901.88;5261237;28;20037;-66
2023/05/04 06:18:05;;;;;;;15.25;8.23;;;;;;;8.70;100.00;101904.06;5260002;28;20021;-65
2023/05/04 06:20:36;;;;;;;13.02;7.28;;;;;;;8.80;100.00;101900.00;5270251;28;20423;-66
2023/05/04 06:23:08;;;;;;;10.98;7.43;;;;;;;8.87;100.00;101893.41;5269402;28;20032;-65
2023/05/04 06:25:40;;;;;;;13.45;8.20;;;;;;;8.94;100.00;101888.66;5266947;28;20033;-65
2023/05/04 06:28:11;;;;;;;11.48;7.93;;;;;;;9.02;100.00;101894.41;5273553;28;20101;-65
2023/05/04 06:30:43;;;;;;;11.65;6.95;;;;;;;9.12;100.00;101892.97;5265670;28;20020;-66
2023/05/04 06:33:15;;;;;;;12.13;8.02;;;;;;;9.29;100.00;101880.56;5278500;28;20024;-65
2023/05/04 06:35:46;;;;;;;14.48;7.35;;;;;;;9.37;100.00;101876.53;5279085;28;20025;-66
2023/05/04 06:38:18;;;;;;;12.32;7.78;;;;;;;9.43;100.00;101880.66;5281081;28;20434;-65
2023/05/04 06:40:49;;;;;;;13.55;7.25;;;;;;;9.51;100.00;101878.44;5269769;28;20397;-66
2023/05/04 06:43:20;;;;;;;11.10;7.30;;;;;;;9.61;100.00;101868.97;5263686;28;20051;-65
2023/05/04 06:45:52;;;;;;;12.07;8.27;;;;;;;9.75;100.00;101873.53;5274428;28;20032;-65
2023/05/04 06:48:23;;;;;;;14.10;7.30;;;;;;;9.86;100.00;101869.41;5271805;28;20789;-66
2023/05/04 06:50:56;;;;;;;10.65;7.00;;;;;;;9.99;100.00;101870.41;5269783;28;20048;-65
2023/05/04 06:53:27;;;;;;;12.63;6.78;;;;;;;10.10;100.00;101875.13;5269888;28;20035;-65
2023/05/04 06:55:58;;;;;;;10.77;6.68;;;;;;;10.17;100.00;101868.50;5271006;28;20028;-65
2023/05/04 06:58:30;;;;;;;12.25;7.03;;;;;;;10.23;100.00;101867.28;5267020;28;20055;-65
2023/05/04 07:01:01;;;;;;;11.00;7.50;;;;;;;10.39;100.00;101873.44;5271122;28;20024;-65
2023/05/04 07:03:32;;;;;;;13.40;7.78;;;;;;;10.39;100.00;101869.00;5270180;28;20048;-65
2023/05/04 07:06:04;;;;;;;12.43;6.95;;;;;;;10.55;100.00;101860.91;5272585;28;20079;-65
2023/05/04 07:08:35;;;;;;;13.05;7.45;;;;;;;10.63;100.00;101857.78;5271769;28;20378;-65
2023/05/04 07:11:09;;;;;;;11.35;7.43;;;;;;;10.71;100.00;101843.97;5268295;28;20097;-65
2023/05/04 07:13:41;;;;;;;12.95;7.63;;;;;;;10.84;100.00;101847.59;5269534;28;20032;-65
2023/05/04 07:16:12;;;;;;;12.88;7.30;;;;;;;10.94;100.00;101845.22;5277122;28;20041;-65
2023/05/04 07:18:43;;;;;;;12.07;7.28;;;;;;;11.01;100.00;101841.22;5277028;28;20028;-65
2023/05/04 07:21:15;;;;;;;12.93;7.00;;;;;;;11.12;100.00;101838.75;5275367;28;20380;-65
2023/05/04 07:23:47;;;;;;;11.57;7.13;;;;;;;11.21;100.00;101839.97;5275821;28;20050;-65
2023/05/04 07:26:18;;;;;;;11.63;6.68;;;;;;;11.37;100.00;101842.50;5270531;28;20055;-66
2023/05/04 07:28:50;;;;;;;10.63;6.65;;;;;;;11.49;100.00;101846.22;5265341;28;20119;-65
2023/05/04 07:31:21;;;;;;;12.20;6.63;;;;;;;11.65;100.00;101841.59;5271091;28;20082;-65
2023/05/04 07:33:52;;;;;;;14.05;6.80;;;;;;;11.77;100.00;101842.59;5270347;28;20047;-65
2023/05/04 07:36:25;;;;;;;11.70;6.25;;;;;;;11.99;100.00;101835.91;5273288;28;20037;-65
2023/05/04 07:38:56;;;;;;;13.30;6.88;;;;;;;12.13;100.00;101830.47;5264388;28;20039;-65
2023/05/04 07:41:28;;;;;;;9.65;6.55;;;;;;;12.23;100.00;101833.38;5272183;28;20115;-65
2023/05/04 07:43:59;;;;;;;10.95;6.32;;;;;;;12.28;100.00;101833.94;5271430;28;20109;-65
2023/05/04 07:46:31;;;;;;;10.63;6.18;;;;;;;12.54;100.00;101827.66;5270758;28;20037;-66
2023/05/04 07:49:02;;;;;;;9.38;7.13;;;;;;;12.52;100.00;101837.59;5268274;28;20045;-65
2023/05/04 07:51:34;;;;;;;11.80;6.38;;;;;;;12.69;100.00;101832.88;5267221;28;20028;-65
2023/05/04 07:54:05;;;;;;;10.70;6.72;;;;;;;12.78;100.00;101832.25;5269173;28;20028;-65
2023/05/04 07:56:36;;;;;;;13.52;6.75;;;;;;;12.99;100.00;101831.72;5264397;28;20443;-66
2023/05/04 07:59:08;;;;;;;10.48;6.93;;;;;;;13.10;100.00;101829.13;5265455;28;20104;-65
2023/05/04 08:01:39;;;;;;;9.95;6.00;;;;;;;13.27;100.00;101827.88;5268824;28;20678;-65
2023/05/04 08:04:11;;;;;;;11.60;6.05;;;;;;;13.34;100.00;101829.19;5271201;28;20505;-65
2023/05/04 08:06:42;;;;;;;10.30;6.38;;;;;;;13.44;100.00;101826.69;5273874;28;20036;-66
2023/05/04 08:09:14;;;;;;;8.52;6.03;;;;;;;13.53;100.00;101821.53;5271828;28;20382;-65
2023/05/04 08:11:46;;;;;;;9.57;6.45;;;;;;;13.77;100.00;101812.66;5268364;28;20410;-65
2023/05/04 08:14:18;;;;;;;11.07;6.32;;;;;;;13.78;100.00;101824.22;5267495;28;20125;-65
2023/05/04 08:16:49;;;;;;;9.27;6.28;;;;;;;14.02;100.00;101810.81;5271568;28;20028;-65
2023/05/04 08:19:21;;;;;;;10.35;6.18;;;;;;;14.17;100.00;101815.00;5262425;28;20036;-65
2023/05/04 08:21:52;;;;;;;12.52;6.32;;;;;;;14.19;100.00;101810.38;5273591;28;20020;-65
2023/05/04 08:24:24;;;;;;;10.20;6.13;;;;;;;14.36;100.00;101809.06;5261893;28;20438;-65
2023/05/04 08:26:55;;;;;;;8.77;5.85;;;;;;;14.41;100.00;101797.97;5269251;28;20020;-66
2023/05/04 08:29:27;;;;;;;10.75;5.60;;;;;;;14.47;100.00;101805.56;5266286;28;20043;-66
2023/05/04 08:31:59;;;;;;;12.55;6.32;;;;;;;14.58;100.00;101802.91;5264515;28;20467;-65
2023/05/04 08:34:30;;;;;;;10.55;6.00;;;;;;;14.71;100.00;101800.13;5276769;28;20395;-66
2023/05/04 08:37:02;;;;;;;9.07;6.25;;;;;;;14.86;100.00;101792.66;5265873;28;20538;-65
2023/05/04 08:39:34;;;;;;;11.38;6.03;;;;;;;14.91;100.00;101798.53;5270463;28;20036;-65
2023/05/04 08:42:05;;;;;;;9.07;5.88;;;;;;;14.95;100.00;101788.41;5260997;28;20479;-65
2023/05/04 08:44:37;;;;;;;10.82;5.80;;;;;;;15.17;100.00;101792.91;5272248;28;20028;-65
2023/05/04 08:47:08;;;;;;;9.05;5.88;;;;;;;15.31;100.00;101775.66;5262335;28;20017;-66
2023/05/04 08:49:39;;;;;;;13.30;5.78;;;;;;;15.48;100.00;101775.97;5275587;28;20082;-66
2023/05/04 08:52:12;;;;;;;8.52;5.55;;;;;;;15.46;100.00;101769.88;5269798;28;20024;-66
2023/05/04 08:54:45;;;;;;;9.50;6.07;;;;;;;15.73;100.00;101762.34;5269243;28;20052;-66
2023/05/04 08:57:16;;;;;;;8.02;5.60;;;;;;;15.78;100.00;101749.38;5274348;28;20063;-65
2023/05/04 08:59:51;;;;;;;11.13;6.22;;;;;;;15.92;100.00;101751.75;5275016;28;20051;-66
2023/05/04 09:02:23;;;;;;;10.27;5.75;;;;;;;16.08;100.00;101754.84;5274259;28;20056;-66
2023/05/04 09:04:54;;;;;;;9.55;5.75;;;;;;;16.25;100.00;101749.84;5285362;28;20434;-65
2023/05/04 09:07:26;;;;;;;10.95;6.45;;;;;;;16.23;100.00;101747.28;5272297;28;20039;-66
2023/05/04 09:09:57;;;;;;;11.85;6.40;;;;;;;16.27;100.00;101745.19;5272986;28;20384;-66
2023/05/04 09:12:30;;;;;;;10.00;6.03;;;;;;;16.34;100.00;101746.38;5270047;28;20394;-66
2023/05/04 09:15:12;;;;;;;8.35;5.88;;;;;;;16.42;100.00;101741.16;5274889;28;20107;-65
2023/05/04 09:18:01;;;;;;;11.35;6.07;;;;;;;16.56;100.00;101737.25;5270849;28;20077;-66
2023/05/04 09:20:59;;;;;;;9.65;5.53;;;;;;;16.65;100.00;101744.53;5266072;28;20035;-65
2023/05/04 09:23:31;;;;;;;9.52;5.82;;;;;;;16.66;100.00;101742.69;5271238;28;20379;-65
2023/05/04 09:26:03;;;;;;;9.20;5.00;;;;;;;16.87;100.00;101739.97;5271118;28;20024;-66
2023/05/04 09:28:37;;;;;;;7.68;5.65;;;;;;;16.80;100.00;101739.63;5272159;28;20488;-66
2023/05/04 09:31:10;;;;;;;9.43;5.20;;;;;;;17.13;100.00;101740.31;5263347;28;20071;-65
2023/05/04 09:33:43;;;;;;;12.48;5.43;;;;;;;17.20;97.70;101738.78;5263235;28;20053;-65
2023/05/04 09:36:17;;;;;;;10.13;5.35;;;;;;;17.19;99.88;101734.38;5265675;28;20111;-65
2023/05/04 09:38:48;;;;;;;10.57;5.38;;;;;;;17.26;100.00;101732.00;5266829;28;20480;-65
2023/05/04 09:41:30;;;;;;;9.75;5.32;;;;;;;17.32;100.00;101728.72;5268020;28;20024;-65
2023/05/04 09:44:03;;;;;;;8.50;5.28;;;;;;;17.43;98.77;101727.72;5272063;28;20032;-65
2023/05/04 09:46:34;;;;;;;10.25;5.85;;;;;;;17.55;97.24;101729.31;5263504;28;20050;-65
2023/05/04 09:49:06;;;;;;;8.68;5.32;;;;;;;17.63;97.62;101720.50;5266958;28;20020;-65
2023/05/04 09:51:38;;;;;;;7.50;5.07;;;;;;;17.59;100.00;101722.63;5278777;28;20024;-65
2023/05/04 09:54:10;;;;;;;9.00;5.20;;;;;;;17.81;100.00;101717.94;5263861;28;20034;-65
2023/05/04 09:56:46;;;;;;;10.52;5.93;;;;;;;17.87;96.68;101717.38;5271102;28;20032;-65
2023/05/04 09:59:19;;;;;;;8.18;5.32;;;;;;;17.83;98.14;101722.22;5267004;28;20029;-65
2023/05/04 10:01:52;;;;;;;8.87;5.37;;;;;;;17.86;97.47;101712.16;5264511;28;20020;-65
2023/05/04 10:04:24;;;;;;;9.60;5.47;;;;;;;18.08;95.22;101708.25;5268891;28;20301;-65
2023/05/04 10:06:56;;;;;;;9.75;5.57;;;;;;;18.23;94.15;101701.41;5263986;28;20032;-65
2023/05/04 10:09:29;;;;;;;11.45;5.70;;;;;;;18.35;91.44;101693.97;5268821;28;20027;-66
2023/05/04 10:12:05;;;;;;;8.90;5.32;;;;;;;18.38;92.38;101688.28;5268794;28;20513;-66
2023/05/04 10:14:37;;;;;;;8.93;5.43;;;;;;;18.54;92.14;101685.81;5267676;28;20042;-65
2023/05/04 10:17:53;;;;;;;7.80;5.00;;;;;;;18.54;95.34;101674.13;5261988;28;20458;-66
2023/05/04 10:20:57;;;;;;;9.25;5.55;;;;;;;18.57;96.02;101669.28;5264942;28;20034;-66
2023/05/04 10:23:46;;;;;;;10.60;5.50;;;;;;;18.80;94.10;101664.34;5269636;28;20455;-66
2023/05/04 10:26:58;;;;;;;10.35;6.10;;;;;;;18.90;93.92;101653.47;5271318;28;20274;-66
2023/05/04 10:29:32;;;;;;;9.98;5.40;;;;;;;19.09;90.54;101648.94;5256221;28;20041;-66
2023/05/04 10:32:06;;;;;;;8.40;5.32;;;;;;;19.07;94.74;101645.53;5262461;28;20037;-66
2023/05/04 10:34:37;;;;;;;9.25;5.00;;;;;;;19.23;90.35;101632.16;5258465;28;20461;-66
2023/05/04 10:37:18;;;;;;;9.32;5.45;;;;;;;19.33;91.50;101632.94;5269409;28;20028;-66
2023/05/04 10:39:55;;;;;;;9.55;5.25;;;;;;;19.39;91.57;101629.59;5270959;28;20086;-66
2023/05/04 10:42:27;;;;;;;8.52;5.53;;;;;;;19.41;89.99;101621.34;5270013;28;20040;-66
2023/05/04 10:44:59;;;;;;;10.10;5.80;;;;;;;19.40;90.22;101611.50;5274954;28;20024;-66
2023/05/04 10:47:33;;;;;;;8.88;5.63;;;;;;;19.55;87.63;101601.81;5265898;28;20028;-66
2023/05/04 10:50:06;;;;;;;9.60;5.80;;;;;;;19.74;85.10;101605.38;5270205;28;20085;-66
2023/05/04 10:52:52;;;;;;;8.77;5.55;;;;;;;19.64;90.68;101599.19;5272534;28;20043;-66
2023/05/04 10:55:24;;;;;;;7.45;5.25;;;;;;;19.80;84.78;101593.06;5271099;28;20024;-66
2023/05/04 10:57:56;;;;;;;9.65;5.72;;;;;;;19.75;86.09;101574.56;5268091;28;20032;-66
2023/05/04 11:00:45;;;;;;;7.18;5.03;;;;;;;19.78;88.08;101580.50;5261574;28;20025;-66
2023/05/04 11:03:17;;;;;;;9.75;5.20;;;;;;;20.01;84.90;101579.13;5283867;28;20078;-66
2023/05/04 11:05:53;;;;;;;10.15;5.25;;;;;;;20.08;82.69;101574.75;5289694;28;20408;-66
2023/05/04 11:08:25;;;;;;;9.68;4.60;;;;;;;20.09;85.65;101568.31;5296153;28;20028;-66
2023/05/04 11:11:08;;;;;;;7.63;4.90;;;;;;;20.13;84.50;101566.97;5295231;28;20036;-66
2023/05/04 11:13:46;;;;;;;7.55;4.85;;;;;;;20.27;83.86;101569.09;5298508;28;20032;-66
2023/05/04 11:16:24;;;;;;;8.65;4.82;;;;;;;20.34;83.42;101553.84;5292430;28;20105;-66
2023/05/04 11:19:06;;;;;;;8.07;4.65;;;;;;;20.31;87.08;101554.19;5294261;28;20016;-66
2023/05/04 11:21:39;;;;;;;8.38;4.55;;;;;;;20.53;83.00;101550.00;5289751;28;20020;-67
2023/05/04 11:24:10;;;;;;;9.90;4.88;;;;;;;20.50;79.86;101542.22;5285904;28;20051;-66
2023/05/04 11:26:47;;;;;;;7.13;4.57;;;;;;;20.68;80.08;101549.41;5289731;28;20114;-66
2023/05/04 11:29:19;;;;;;;10.07;4.53;;;;;;;20.57;81.99;101548.66;5298789;28;20036;-66
2023/05/04 11:31:54;;;;;;;7.20;4.40;;;;;;;20.62;82.17;101552.78;5294142;28;20028;-66
2023/05/04 11:34:26;;;;;;;8.70;4.43;;;;;;;20.62;82.12;101544.66;5291870;28;20031;-66
2023/05/04 11:36:58;;;;;;;7.75;4.32;;;;;;;20.78;81.88;101549.25;5297085;28;20032;-66
2023/05/04 11:39:32;;;;;;;9.60;5.03;;;;;;;20.85;78.87;101542.16;5298501;28;20032;-66
2023/05/04 11:42:07;;;;;;;7.45;4.35;;;;;;;20.87;79.76;101538.25;5290397;28;20070;-66